sensor_id;sensor_type;location;lat;lon;timestamp;pressure;altitude;pressure_sealevel;temperature;humidity
64679;BME280;51094;53.864;27.676;2023-02-28T00:01:30;100465.00;;;-3.67;68.44
64679;BME280;51094;53.864;27.676;2023-02-28T00:03:58;100516.91;;;-3.31;69.28
64679;BME280;51094;53.864;27.676;2023-02-28T00:06:24;100503.34;;;-3.32;69.77
64679;BME280;51094;53.864;27.676;2023-02-28T00:08:51;100454.94;;;-3.44;69.59
64679;BME280;51094;53.864;27.676;2023-02-28T00:11:18;100514.53;;;-2.90;68.93
64679;BME280;51094;53.864;27.676;2023-02-28T00:13:47;100468.69;;;-3.06;68.94
64679;BME280;51094;53.864;27.676;2023-02-28T00:16:20;100512.06;;;-2.71;68.86
64679;BME280;51094;53.864;27.676;2023-02-28T00:18:56;100477.19;;;-3.05;68.29
64679;BME280;51094;53.864;27.676;2023-02-28T00:21:22;100475.47;;;-3.09;68.81
64679;BME280;51094;53.864;27.676;2023-02-28T00:23:49;100459.28;;;-3.25;68.67
64679;BME280;51094;53.864;27.676;2023-02-28T00:26:16;100511.03;;;-3.18;67.24
64679;BME280;51094;53.864;27.676;2023-02-28T00:28:45;100454.72;;;-3.82;68.91
64679;BME280;51094;53.864;27.676;2023-02-28T00:31:12;100511.63;;;-3.63;68.82
64679;BME280;51094;53.864;27.676;2023-02-28T00:33:39;100506.59;;;-3.56;69.51
64679;BME280;51094;53.864;27.676;2023-02-28T00:36:08;100504.16;;;-3.38;69.32
64679;BME280;51094;53.864;27.676;2023-02-28T00:38:35;100501.63;;;-3.35;69.30
64679;BME280;51094;53.864;27.676;2023-02-28T00:41:02;100478.69;;;-3.47;69.48
64679;BME280;51094;53.864;27.676;2023-02-28T00:43:33;100499.06;;;-3.39;68.85
64679;BME280;51094;53.864;27.676;2023-02-28T00:46:01;100497.34;;;-3.48;69.40
64679;BME280;51094;53.864;27.676;2023-02-28T00:48:29;100502.38;;;-3.54;69.75
64679;BME280;51094;53.864;27.676;2023-02-28T00:50:56;100507.34;;;-3.72;69.55
64679;BME280;51094;53.864;27.676;2023-02-28T00:53:24;100491.94;;;-3.96;69.91
64679;BME280;51094;53.864;27.676;2023-02-28T00:55:51;100513.94;;;-3.98;70.70
64679;BME280;51094;53.864;27.676;2023-02-28T00:58:17;100488.28;;;-4.24;70.68
64679;BME280;51094;53.864;27.676;2023-02-28T01:00:44;100519.00;;;-3.98;71.47
64679;BME280;51094;53.864;27.676;2023-02-28T01:03:19;100508.75;;;-4.11;71.37
64679;BME280;51094;53.864;27.676;2023-02-28T01:05:47;100492.31;;;-4.49;72.02
64679;BME280;51094;53.864;27.676;2023-02-28T01:08:16;100514.28;;;-4.51;72.66
64679;BME280;51094;53.864;27.676;2023-02-28T01:10:42;100515.09;;;-4.55;72.78
64679;BME280;51094;53.864;27.676;2023-02-28T01:13:10;100513.44;;;-4.52;73.17
64679;BME280;51094;53.864;27.676;2023-02-28T01:15:39;100465.81;;;-4.74;73.50
64679;BME280;51094;53.864;27.676;2023-02-28T01:18:08;100441.97;;;-4.91;73.38
64679;BME280;51094;53.864;27.676;2023-02-28T01:20:36;100459.97;;;-4.67;73.71
64679;BME280;51094;53.864;27.676;2023-02-28T01:23:03;100513.75;;;-4.17;72.64
64679;BME280;51094;53.864;27.676;2023-02-28T01:25:30;100359.78;;;-5.09;72.91
64679;BME280;51094;53.864;27.676;2023-02-28T01:27:57;100484.88;;;-4.28;72.17
64679;BME280;51094;53.864;27.676;2023-02-28T01:30:26;100455.94;;;-4.48;72.11
64679;BME280;51094;53.864;27.676;2023-02-28T01:32:52;100514.66;;;-4.10;72.83
64679;BME280;51094;53.864;27.676;2023-02-28T01:35:20;100409.31;;;-4.58;72.82
64679;BME280;51094;53.864;27.676;2023-02-28T01:37:47;100343.81;;;-4.97;72.71
64679;BME280;51094;53.864;27.676;2023-02-28T01:40:14;100504.56;;;-4.04;72.93
64679;BME280;51094;53.864;27.676;2023-02-28T01:42:41;100503.56;;;-4.20;73.06
64679;BME280;51094;53.864;27.676;2023-02-28T01:45:22;100499.22;;;-4.36;73.04
64679;BME280;51094;53.864;27.676;2023-02-28T01:47:51;100435.28;;;-4.86;73.89
64679;BME280;51094;53.864;27.676;2023-02-28T01:50:23;100445.47;;;-4.82;73.72
64679;BME280;51094;53.864;27.676;2023-02-28T01:52:53;100469.91;;;-4.88;73.58
64679;BME280;51094;53.864;27.676;2023-02-28T01:55:23;100499.91;;;-4.52;73.83
64679;BME280;51094;53.864;27.676;2023-02-28T01:58:00;100445.66;;;-5.39;74.27
64679;BME280;51094;53.864;27.676;2023-02-28T02:00:29;100444.34;;;-5.07;74.39
64679;BME280;51094;53.864;27.676;2023-02-28T02:03:05;100440.00;;;-5.15;74.57
64679;BME280;51094;53.864;27.676;2023-02-28T02:05:37;100509.00;;;-4.70;74.76
64679;BME280;51094;53.864;27.676;2023-02-28T02:08:11;100517.47;;;-4.71;74.76
64679;BME280;51094;53.864;27.676;2023-02-28T02:10:48;100492.56;;;-5.04;74.78
64679;BME280;51094;53.864;27.676;2023-02-28T02:18:55;100515.78;;;-4.70;74.91
64679;BME280;51094;53.864;27.676;2023-02-28T02:33:08;100514.38;;;-4.44;74.89
64679;BME280;51094;53.864;27.676;2023-02-28T02:35:43;100518.69;;;-4.32;74.61
64679;BME280;51094;53.864;27.676;2023-02-28T02:38:39;100522.06;;;-4.38;74.59
64679;BME280;51094;53.864;27.676;2023-02-28T02:41:28;100440.97;;;-5.04;74.40
64679;BME280;51094;53.864;27.676;2023-02-28T02:44:10;100454.44;;;-5.10;75.13
64679;BME280;51094;53.864;27.676;2023-02-28T02:46:42;100512.31;;;-4.78;75.69
64679;BME280;51094;53.864;27.676;2023-02-28T02:49:24;100293.22;;;-6.39;75.47
64679;BME280;51094;53.864;27.676;2023-02-28T02:51:54;100489.19;;;-5.04;76.29
64679;BME280;51094;53.864;27.676;2023-02-28T02:54:33;100513.88;;;-4.89;76.11
64679;BME280;51094;53.864;27.676;2023-02-28T02:57:07;100428.63;;;-5.49;76.04
64679;BME280;51094;53.864;27.676;2023-02-28T02:59:38;100516.00;;;-5.24;76.55
64679;BME280;51094;53.864;27.676;2023-02-28T03:02:07;100505.94;;;-5.15;76.84
64679;BME280;51094;53.864;27.676;2023-02-28T03:04:42;100469.41;;;-5.31;76.64
64679;BME280;51094;53.864;27.676;2023-02-28T03:07:09;100340.94;;;-6.05;76.60
64679;BME280;51094;53.864;27.676;2023-02-28T03:09:37;100447.38;;;-5.37;76.30
64679;BME280;51094;53.864;27.676;2023-02-28T03:12:09;100428.97;;;-5.90;77.24
64679;BME280;51094;53.864;27.676;2023-02-28T03:15:01;100500.84;;;-5.20;77.03
64679;BME280;51094;53.864;27.676;2023-02-28T03:18:32;100228.03;;;-7.16;77.49
64679;BME280;51094;53.864;27.676;2023-02-28T03:20:41;100497.81;;;-5.55;78.17
64679;BME280;51094;53.864;27.676;2023-02-28T03:23:17;100503.66;;;-5.59;78.39
64679;BME280;51094;53.864;27.676;2023-02-28T03:28:19;100231.22;;;-7.26;78.45
64679;BME280;51094;53.864;27.676;2023-02-28T03:33:39;100461.13;;;-5.81;78.64
64679;BME280;51094;53.864;27.676;2023-02-28T03:36:18;100432.28;;;-5.92;78.57
64679;BME280;51094;53.864;27.676;2023-02-28T03:38:53;100395.56;;;-6.23;78.60
64679;BME280;51094;53.864;27.676;2023-02-28T03:41:25;100469.47;;;-5.88;79.13
64679;BME280;51094;53.864;27.676;2023-02-28T03:44:14;100496.78;;;-5.69;78.84
64679;BME280;51094;53.864;27.676;2023-02-28T03:46:47;100497.59;;;-5.72;79.06
64679;BME280;51094;53.864;27.676;2023-02-28T03:49:27;100494.94;;;-5.79;79.46
64679;BME280;51094;53.864;27.676;2023-02-28T03:51:56;100319.78;;;-6.68;79.34
64679;BME280;51094;53.864;27.676;2023-02-28T03:54:35;100377.50;;;-6.45;79.32
64679;BME280;51094;53.864;27.676;2023-02-28T03:57:27;100488.09;;;-5.86;79.75
64679;BME280;51094;53.864;27.676;2023-02-28T04:00:05;100481.41;;;-5.81;79.38
64679;BME280;51094;53.864;27.676;2023-02-28T04:02:38;100450.00;;;-5.94;79.33
64679;BME280;51094;53.864;27.676;2023-02-28T04:05:06;100375.03;;;-6.40;79.00
64679;BME280;51094;53.864;27.676;2023-02-28T04:07:34;100358.69;;;-6.62;78.86
64679;BME280;51094;53.864;27.676;2023-02-28T04:10:01;100444.63;;;-6.15;79.50
64679;BME280;51094;53.864;27.676;2023-02-28T04:12:27;100481.94;;;-6.02;79.71
64679;BME280;51094;53.864;27.676;2023-02-28T04:14:54;100452.81;;;-6.31;79.55
64679;BME280;51094;53.864;27.676;2023-02-28T04:17:21;100477.56;;;-6.14;80.22
64679;BME280;51094;53.864;27.676;2023-02-28T04:19:48;100341.09;;;-7.07;79.70
64679;BME280;51094;53.864;27.676;2023-02-28T04:22:16;100450.09;;;-6.42;80.14
64679;BME280;51094;53.864;27.676;2023-02-28T04:24:44;100406.50;;;-6.77;80.05
64679;BME280;51094;53.864;27.676;2023-02-28T04:27:11;100375.94;;;-6.88;80.49
64679;BME280;51094;53.864;27.676;2023-02-28T04:29:38;100278.84;;;-7.49;80.65
64679;BME280;51094;53.864;27.676;2023-02-28T04:32:05;100326.47;;;-7.23;80.93
64679;BME280;51094;53.864;27.676;2023-02-28T04:34:32;100471.13;;;-6.45;81.42
64679;BME280;51094;53.864;27.676;2023-02-28T04:36:59;100387.69;;;-6.91;80.76
64679;BME280;51094;53.864;27.676;2023-02-28T04:39:43;100468.75;;;-6.35;81.15
64679;BME280;51094;53.864;27.676;2023-02-28T04:42:11;100468.75;;;-6.35;80.99
64679;BME280;51094;53.864;27.676;2023-02-28T04:44:38;100406.72;;;-6.65;80.80
64679;BME280;51094;53.864;27.676;2023-02-28T04:47:05;100460.50;;;-6.25;80.98
64679;BME280;51094;53.864;27.676;2023-02-28T04:49:32;100413.69;;;-6.49;80.24
64679;BME280;51094;53.864;27.676;2023-02-28T04:51:59;100456.47;;;-6.14;80.10
64679;BME280;51094;53.864;27.676;2023-02-28T04:54:26;100419.53;;;-6.54;80.02
64679;BME280;51094;53.864;27.676;2023-02-28T04:56:53;100453.66;;;-6.31;79.94
64679;BME280;51094;53.864;27.676;2023-02-28T04:59:21;100461.31;;;-6.26;80.26
64679;BME280;51094;53.864;27.676;2023-02-28T05:01:49;100441.66;;;-6.41;80.13
64679;BME280;51094;53.864;27.676;2023-02-28T05:04:16;100473.13;;;-6.27;80.40
64679;BME280;51094;53.864;27.676;2023-02-28T05:06:43;100345.50;;;-6.95;79.50
64679;BME280;51094;53.864;27.676;2023-02-28T05:09:10;100331.03;;;-7.04;80.58
64679;BME280;51094;53.864;27.676;2023-02-28T05:11:40;100434.94;;;-6.39;80.19
64679;BME280;51094;53.864;27.676;2023-02-28T05:14:12;100406.81;;;-6.59;80.60
64679;BME280;51094;53.864;27.676;2023-02-28T05:16:39;100379.56;;;-6.74;80.62
64679;BME280;51094;53.864;27.676;2023-02-28T05:19:06;100388.19;;;-6.62;79.90
64679;BME280;51094;53.864;27.676;2023-02-28T05:21:35;100491.19;;;-6.06;80.00
64679;BME280;51094;53.864;27.676;2023-02-28T05:24:09;100446.28;;;-6.17;80.42
64679;BME280;51094;53.864;27.676;2023-02-28T05:26:39;100457.41;;;-6.08;79.22
64679;BME280;51094;53.864;27.676;2023-02-28T05:29:06;100431.84;;;-6.23;80.11
64679;BME280;51094;53.864;27.676;2023-02-28T05:31:33;100461.84;;;-5.93;79.61
64679;BME280;51094;53.864;27.676;2023-02-28T05:34:01;100423.56;;;-6.13;78.82
64679;BME280;51094;53.864;27.676;2023-02-28T05:36:28;100444.94;;;-5.94;78.97
64679;BME280;51094;53.864;27.676;2023-02-28T05:38:54;100451.75;;;-5.88;78.71
64679;BME280;51094;53.864;27.676;2023-02-28T05:41:21;100336.78;;;-6.61;78.41
64679;BME280;51094;53.864;27.676;2023-02-28T05:43:48;100353.00;;;-6.47;78.95
64679;BME280;51094;53.864;27.676;2023-02-28T05:46:16;100456.22;;;-5.72;78.71
64679;BME280;51094;53.864;27.676;2023-02-28T05:48:46;100462.94;;;-5.74;78.15
64679;BME280;51094;53.864;27.676;2023-02-28T05:51:13;100452.66;;;-5.83;78.09
64679;BME280;51094;53.864;27.676;2023-02-28T05:53:40;100449.31;;;-5.81;78.13
64679;BME280;51094;53.864;27.676;2023-02-28T05:56:07;100451.16;;;-5.71;78.60
64679;BME280;51094;53.864;27.676;2023-02-28T05:58:34;100243.50;;;-6.96;78.16
64679;BME280;51094;53.864;27.676;2023-02-28T06:01:20;100225.53;;;-7.13;77.26
64679;BME280;51094;53.864;27.676;2023-02-28T06:03:49;100449.44;;;-5.73;77.53
64679;BME280;51094;53.864;27.676;2023-02-28T06:06:16;100365.28;;;-6.16;77.75
64679;BME280;51094;53.864;27.676;2023-02-28T06:08:43;100371.41;;;-6.00;78.00
64679;BME280;51094;53.864;27.676;2023-02-28T06:11:11;100440.34;;;-5.56;77.61
64679;BME280;51094;53.864;27.676;2023-02-28T06:13:38;100345.19;;;-6.02;77.54
64679;BME280;51094;53.864;27.676;2023-02-28T06:16:05;100434.63;;;-5.43;77.75
64679;BME280;51094;53.864;27.676;2023-02-28T06:18:32;100387.13;;;-5.56;77.43
64679;BME280;51094;53.864;27.676;2023-02-28T06:20:59;100297.13;;;-5.99;75.97
64679;BME280;51094;53.864;27.676;2023-02-28T06:23:25;100411.09;;;-5.32;76.67
64679;BME280;51094;53.864;27.676;2023-02-28T06:25:52;100372.84;;;-5.49;75.75
64679;BME280;51094;53.864;27.676;2023-02-28T06:28:19;100427.25;;;-5.23;75.49
64679;BME280;51094;53.864;27.676;2023-02-28T06:30:46;100362.63;;;-5.57;75.26
64679;BME280;51094;53.864;27.676;2023-02-28T06:33:13;100382.34;;;-5.33;75.70
64679;BME280;51094;53.864;27.676;2023-02-28T06:35:43;100401.09;;;-5.17;75.65
64679;BME280;51094;53.864;27.676;2023-02-28T06:38:10;100385.19;;;-5.03;75.57
64679;BME280;51094;53.864;27.676;2023-02-28T06:40:37;100406.63;;;-4.72;75.70
64679;BME280;51094;53.864;27.676;2023-02-28T06:43:04;100260.44;;;-5.56;75.07
64679;BME280;51094;53.864;27.676;2023-02-28T06:45:31;100409.31;;;-4.58;74.33
64679;BME280;51094;53.864;27.676;2023-02-28T06:47:58;100376.16;;;-4.78;74.57
64679;BME280;51094;53.864;27.676;2023-02-28T06:50:26;100406.84;;;-4.49;73.57
64679;BME280;51094;53.864;27.676;2023-02-28T06:52:55;100406.03;;;-4.46;72.28
64679;BME280;51094;53.864;27.676;2023-02-28T06:55:22;100345.59;;;-4.88;72.29
64679;BME280;51094;53.864;27.676;2023-02-28T06:57:49;100388.03;;;-4.71;72.03
64679;BME280;51094;53.864;27.676;2023-02-28T07:00:17;100321.84;;;-4.98;72.86
64679;BME280;51094;53.864;27.676;2023-02-28T07:02:44;100373.69;;;-4.65;72.29
64679;BME280;51094;53.864;27.676;2023-02-28T07:05:11;100412.75;;;-4.50;71.88
64679;BME280;51094;53.864;27.676;2023-02-28T07:07:38;100357.56;;;-4.71;72.18
64679;BME280;51094;53.864;27.676;2023-02-28T07:10:07;100349.25;;;-4.54;73.19
64679;BME280;51094;53.864;27.676;2023-02-28T07:12:36;100414.81;;;-4.00;71.50
64679;BME280;51094;53.864;27.676;2023-02-28T07:15:06;100306.84;;;-4.68;71.94
64679;BME280;51094;53.864;27.676;2023-02-28T07:17:33;100414.03;;;-3.88;71.16
64679;BME280;51094;53.864;27.676;2023-02-28T07:20:00;100333.28;;;-4.43;70.22
64679;BME280;51094;53.864;27.676;2023-02-28T07:22:27;100404.69;;;-3.95;70.35
64679;BME280;51094;53.864;27.676;2023-02-28T07:24:55;100392.03;;;-3.83;69.84
64679;BME280;51094;53.864;27.676;2023-02-28T07:27:22;100354.66;;;-4.07;70.75
64679;BME280;51094;53.864;27.676;2023-02-28T07:29:52;100348.78;;;-3.97;70.64
64679;BME280;51094;53.864;27.676;2023-02-28T07:32:19;100339.50;;;-3.84;69.96
64679;BME280;51094;53.864;27.676;2023-02-28T07:34:47;100392.25;;;-3.39;69.31
64679;BME280;51094;53.864;27.676;2023-02-28T07:37:14;100260.66;;;-4.10;68.89
64679;BME280;51094;53.864;27.676;2023-02-28T07:39:41;100393.94;;;-3.37;68.92
64679;BME280;51094;53.864;27.676;2023-02-28T07:42:09;100408.47;;;-2.97;69.32
64679;BME280;51094;53.864;27.676;2023-02-28T07:44:39;100393.25;;;-2.79;68.30
64679;BME280;51094;53.864;27.676;2023-02-28T07:47:08;100261.69;;;-3.53;67.71
64679;BME280;51094;53.864;27.676;2023-02-28T07:49:36;100372.03;;;-2.77;68.10
64679;BME280;51094;53.864;27.676;2023-02-28T07:52:06;100378.00;;;-2.62;67.33
64679;BME280;51094;53.864;27.676;2023-02-28T07:54:33;100360.16;;;-2.78;66.78
64679;BME280;51094;53.864;27.676;2023-02-28T07:57:00;100359.31;;;-2.75;67.04
64679;BME280;51094;53.864;27.676;2023-02-28T07:59:27;100362.69;;;-2.46;66.24
64679;BME280;51094;53.864;27.676;2023-02-28T08:01:58;100292.28;;;-2.73;66.98
64679;BME280;51094;53.864;27.676;2023-02-28T08:04:26;100394.94;;;-2.13;65.58
64679;BME280;51094;53.864;27.676;2023-02-28T08:06:53;100390.72;;;-2.23;65.46
64679;BME280;51094;53.864;27.676;2023-02-28T08:09:20;100266.81;;;-2.95;65.89
64679;BME280;51094;53.864;27.676;2023-02-28T08:11:46;100360.16;;;-2.46;65.36
64679;BME280;51094;53.864;27.676;2023-02-28T08:14:13;100350.81;;;-2.35;65.64
64679;BME280;51094;53.864;27.676;2023-02-28T08:16:40;100329.56;;;-2.26;65.66
64679;BME280;51094;53.864;27.676;2023-02-28T08:19:07;100243.84;;;-2.59;65.75
64679;BME280;51094;53.864;27.676;2023-02-28T08:21:34;100390.63;;;-1.74;64.22
64679;BME280;51094;53.864;27.676;2023-02-28T08:24:01;100379.59;;;-1.81;64.37
64679;BME280;51094;53.864;27.676;2023-02-28T08:26:27;100383.84;;;-1.75;64.95
64679;BME280;51094;53.864;27.676;2023-02-28T08:28:54;100219.28;;;-2.69;64.06
64679;BME280;51094;53.864;27.676;2023-02-28T08:31:23;100388.81;;;-1.49;65.50
64679;BME280;51094;53.864;27.676;2023-02-28T08:33:50;100319.19;;;-1.71;63.86
64679;BME280;51094;53.864;27.676;2023-02-28T08:36:19;100378.44;;;-1.13;64.47
64679;BME280;51094;53.864;27.676;2023-02-28T08:38:46;100374.94;;;-0.96;63.84
64679;BME280;51094;53.864;27.676;2023-02-28T08:41:13;100258.78;;;-1.61;62.47
64679;BME280;51094;53.864;27.676;2023-02-28T08:43:41;100374.97;;;-0.98;63.07
64679;BME280;51094;53.864;27.676;2023-02-28T08:46:11;100362.13;;;-0.89;63.94
64679;BME280;51094;53.864;27.676;2023-02-28T08:48:40;100304.41;;;-1.11;61.98
64679;BME280;51094;53.864;27.676;2023-02-28T08:51:14;100299.38;;;-1.20;62.30
64679;BME280;51094;53.864;27.676;2023-02-28T08:53:47;100356.75;;;-0.52;62.35
64679;BME280;51094;53.864;27.676;2023-02-28T08:56:17;100299.03;;;-0.76;61.05
64679;BME280;51094;53.864;27.676;2023-02-28T08:58:46;100276.75;;;-0.59;60.71
64679;BME280;51094;53.864;27.676;2023-02-28T09:01:15;100347.91;;;-0.16;60.33
64679;BME280;51094;53.864;27.676;2023-02-28T09:03:43;100268.97;;;-0.45;59.17
64679;BME280;51094;53.864;27.676;2023-02-28T09:06:10;100328.03;;;0.09;59.40
64679;BME280;51094;53.864;27.676;2023-02-28T09:08:38;100354.81;;;0.49;59.59
64679;BME280;51094;53.864;27.676;2023-02-28T09:11:06;100354.44;;;0.81;58.49
64679;BME280;51094;53.864;27.676;2023-02-28T09:13:34;100221.50;;;0.06;58.63
64679;BME280;51094;53.864;27.676;2023-02-28T09:16:03;100316.47;;;0.46;58.35
64679;BME280;51094;53.864;27.676;2023-02-28T09:18:30;100354.84;;;0.46;57.74
64679;BME280;51094;53.864;27.676;2023-02-28T09:20:57;100302.47;;;0.07;58.56
64679;BME280;51094;53.864;27.676;2023-02-28T09:23:24;100281.09;;;0.11;58.39
64679;BME280;51094;53.864;27.676;2023-02-28T09:25:53;100306.97;;;0.54;58.19
64679;BME280;51094;53.864;27.676;2023-02-28T09:28:21;100324.63;;;0.76;57.99
64679;BME280;51094;53.864;27.676;2023-02-28T09:30:51;100287.31;;;0.58;58.28
64679;BME280;51094;53.864;27.676;2023-02-28T09:33:19;100310.41;;;1.13;54.86
64679;BME280;51094;53.864;27.676;2023-02-28T09:35:51;100316.22;;;1.24;54.04
64679;BME280;51094;53.864;27.676;2023-02-28T09:38:23;100325.31;;;1.41;54.65
64679;BME280;51094;53.864;27.676;2023-02-28T09:40:53;100321.78;;;1.48;55.13
64679;BME280;51094;53.864;27.676;2023-02-28T09:43:23;100322.13;;;1.77;54.67
64679;BME280;51094;53.864;27.676;2023-02-28T09:48:49;100305.22;;;2.13;52.52
64679;BME280;51094;53.864;27.676;2023-02-28T09:51:30;100239.66;;;1.98;52.59
64679;BME280;51094;53.864;27.676;2023-02-28T09:54:00;100294.06;;;2.56;51.04
64679;BME280;51094;53.864;27.676;2023-02-28T09:56:34;100296.25;;;2.73;49.74
64679;BME280;51094;53.864;27.676;2023-02-28T10:01:49;100225.22;;;2.72;48.00
64679;BME280;51094;53.864;27.676;2023-02-28T10:04:42;100299.81;;;3.40;48.13
64679;BME280;51094;53.864;27.676;2023-02-28T10:07:25;100304.94;;;3.74;47.36
64679;BME280;51094;53.864;27.676;2023-02-28T10:09:59;100322.91;;;3.75;44.07
64679;BME280;51094;53.864;27.676;2023-02-28T10:12:29;100232.63;;;2.84;43.59
64679;BME280;51094;53.864;27.676;2023-02-28T10:14:58;100302.03;;;3.18;45.50
64679;BME280;51094;53.864;27.676;2023-02-28T10:17:37;100304.63;;;3.52;45.10
64679;BME280;51094;53.864;27.676;2023-02-28T10:20:23;100309.16;;;3.76;44.09
64679;BME280;51094;53.864;27.676;2023-02-28T10:23:00;100305.41;;;3.88;43.72
64679;BME280;51094;53.864;27.676;2023-02-28T10:25:35;100269.75;;;3.74;42.57
64679;BME280;51094;53.864;27.676;2023-02-28T10:28:13;100304.78;;;3.80;43.90
64679;BME280;51094;53.864;27.676;2023-02-28T10:30:43;100289.41;;;4.08;44.13
64679;BME280;51094;53.864;27.676;2023-02-28T10:33:18;100270.75;;;3.99;43.40
64679;BME280;51094;53.864;27.676;2023-02-28T10:35:46;100227.50;;;3.50;42.29
64679;BME280;51094;53.864;27.676;2023-02-28T10:38:25;100260.53;;;3.96;42.69
64679;BME280;51094;53.864;27.676;2023-02-28T10:41:13;100188.72;;;3.58;42.71
64679;BME280;51094;53.864;27.676;2023-02-28T10:43:42;100252.06;;;4.24;41.58
64679;BME280;51094;53.864;27.676;2023-02-28T10:46:15;100249.53;;;4.50;42.31
64679;BME280;51094;53.864;27.676;2023-02-28T10:49:28;100234.44;;;4.67;40.53
64679;BME280;51094;53.864;27.676;2023-02-28T10:51:58;100212.38;;;4.59;39.83
64679;BME280;51094;53.864;27.676;2023-02-28T10:54:29;100229.06;;;4.46;40.22
64679;BME280;51094;53.864;27.676;2023-02-28T10:57:20;100206.53;;;4.80;40.68
64679;BME280;51094;53.864;27.676;2023-02-28T10:59:52;100154.19;;;4.78;38.94
64679;BME280;51094;53.864;27.676;2023-02-28T11:02:35;100217.72;;;5.06;38.04
64679;BME280;51094;53.864;27.676;2023-02-28T11:05:24;100214.13;;;5.36;39.02
64679;BME280;51094;53.864;27.676;2023-02-28T11:07:56;100061.84;;;4.91;38.58
64679;BME280;51094;53.864;27.676;2023-02-28T11:10:29;100178.22;;;5.78;35.26
64679;BME280;51094;53.864;27.676;2023-02-28T11:12:56;100026.00;;;4.85;36.47
64679;BME280;51094;53.864;27.676;2023-02-28T11:15:31;100156.78;;;5.53;36.64
64679;BME280;51094;53.864;27.676;2023-02-28T11:20:39;100178.28;;;6.23;35.53
64679;BME280;51094;53.864;27.676;2023-02-28T11:23:12;100079.34;;;5.54;35.97
64679;BME280;51094;53.864;27.676;2023-02-28T11:25:47;100048.59;;;5.48;36.16
64679;BME280;51094;53.864;27.676;2023-02-28T11:28:34;100172.81;;;6.31;33.39
64679;BME280;51094;53.864;27.676;2023-02-28T11:33:50;100156.34;;;6.33;34.45
64679;BME280;51094;53.864;27.676;2023-02-28T11:36:22;100138.69;;;6.23;34.53
64679;BME280;51094;53.864;27.676;2023-02-28T11:38:54;100109.69;;;5.94;34.42
64679;BME280;51094;53.864;27.676;2023-02-28T11:41:25;100135.09;;;6.49;35.17
64679;BME280;51094;53.864;27.676;2023-02-28T11:47:12;100052.47;;;6.47;33.68
64679;BME280;51094;53.864;27.676;2023-02-28T12:01:19;100121.75;;;7.20;34.64
64679;BME280;51094;53.864;27.676;2023-02-28T12:03:58;100122.13;;;7.31;33.91
64679;BME280;51094;53.864;27.676;2023-02-28T12:06:49;100075.69;;;6.89;34.96
64679;BME280;51094;53.864;27.676;2023-02-28T12:15:17;100122.50;;;8.18;34.56
64679;BME280;51094;53.864;27.676;2023-02-28T12:24:00;100093.81;;;7.66;34.74
64679;BME280;51094;53.864;27.676;2023-02-28T12:26:40;100086.09;;;8.21;33.90
64679;BME280;51094;53.864;27.676;2023-02-28T12:32:11;100070.25;;;9.29;32.57
64679;BME280;51094;53.864;27.676;2023-02-28T12:34:47;99980.78;;;8.20;32.76
64679;BME280;51094;53.864;27.676;2023-02-28T12:37:30;100069.56;;;8.92;32.40
64679;BME280;51094;53.864;27.676;2023-02-28T12:40:03;100006.38;;;7.73;33.97
64679;BME280;51094;53.864;27.676;2023-02-28T12:42:50;100061.84;;;8.22;33.38
64679;BME280;51094;53.864;27.676;2023-02-28T12:45:24;100057.72;;;8.18;33.90
64679;BME280;51094;53.864;27.676;2023-02-28T12:47:58;100026.84;;;9.48;32.36
64679;BME280;51094;53.864;27.676;2023-02-28T12:50:27;100017.38;;;9.94;31.72
64679;BME280;51094;53.864;27.676;2023-02-28T12:53:15;100015.03;;;9.90;31.22
64679;BME280;51094;53.864;27.676;2023-02-28T12:58:34;100010.94;;;8.73;33.68
64679;BME280;51094;53.864;27.676;2023-02-28T13:01:28;100024.50;;;8.78;33.08
64679;BME280;51094;53.864;27.676;2023-02-28T13:04:26;100038.13;;;8.98;33.22
64679;BME280;51094;53.864;27.676;2023-02-28T13:07:12;100040.75;;;9.47;31.64
64679;BME280;51094;53.864;27.676;2023-02-28T13:09:52;100053.38;;;8.54;31.92
64679;BME280;51094;53.864;27.676;2023-02-28T13:12:20;100005.13;;;7.62;34.14
64679;BME280;51094;53.864;27.676;2023-02-28T13:14:50;99902.44;;;6.71;35.20
64679;BME280;51094;53.864;27.676;2023-02-28T13:17:21;100031.56;;;7.50;36.48
64679;BME280;51094;53.864;27.676;2023-02-28T13:22:36;99990.88;;;7.16;36.17
64679;BME280;51094;53.864;27.676;2023-02-28T13:27:52;99946.69;;;7.76;33.37
64679;BME280;51094;53.864;27.676;2023-02-28T13:36:07;99791.03;;;4.75;36.76
64679;BME280;51094;53.864;27.676;2023-02-28T13:38:42;99919.78;;;5.00;37.90
64679;BME280;51094;53.864;27.676;2023-02-28T13:46:30;100004.63;;;5.73;39.43
64679;BME280;51094;53.864;27.676;2023-02-28T13:49:19;99984.31;;;5.20;39.06
64679;BME280;51094;53.864;27.676;2023-02-28T13:51:48;99943.81;;;4.29;40.25
64679;BME280;51094;53.864;27.676;2023-02-28T13:57:27;99988.44;;;4.78;41.00
64679;BME280;51094;53.864;27.676;2023-02-28T14:02:47;99970.97;;;5.76;39.76
64679;BME280;51094;53.864;27.676;2023-02-28T14:05:20;99967.59;;;5.74;39.49
64679;BME280;51094;53.864;27.676;2023-02-28T14:07:55;99918.84;;;6.70;37.50
64679;BME280;51094;53.864;27.676;2023-02-28T14:10:27;99959.97;;;7.32;36.89
64679;BME280;51094;53.864;27.676;2023-02-28T14:12:56;99940.50;;;6.67;37.27
64679;BME280;51094;53.864;27.676;2023-02-28T14:15:47;99886.56;;;6.97;36.06
64679;BME280;51094;53.864;27.676;2023-02-28T14:18:42;99792.00;;;6.93;35.37
64679;BME280;51094;53.864;27.676;2023-02-28T14:21:10;99918.13;;;7.94;34.49
64679;BME280;51094;53.864;27.676;2023-02-28T14:35:10;99926.34;;;4.62;39.91
64679;BME280;51094;53.864;27.676;2023-02-28T14:37:41;99972.75;;;4.60;40.90
64679;BME280;51094;53.864;27.676;2023-02-28T14:40:19;99951.22;;;4.13;41.86
64679;BME280;51094;53.864;27.676;2023-02-28T14:42:55;99960.22;;;4.26;42.45
64679;BME280;51094;53.864;27.676;2023-02-28T14:45:23;99954.81;;;4.08;42.40